sensor_id;sensor_type;location;lat;lon;timestamp;temperature;humidity
13569;DHT22;6856;51.460;7.158;2023-09-19T00:01:26;20.20;61.10
13569;DHT22;6856;51.460;7.158;2023-09-19T00:04:01;20.10;60.90
13569;DHT22;6856;51.460;7.158;2023-09-19T00:06:38;20.10;60.60
13569;DHT22;6856;51.460;7.158;2023-09-19T00:09:12;20.10;60.50
13569;DHT22;6856;51.460;7.158;2023-09-19T00:11:46;20.10;60.30
13569;DHT22;6856;51.460;7.158;2023-09-19T00:14:24;20.00;60.10
13569;DHT22;6856;51.460;7.158;2023-09-19T00:16:58;19.90;60.20
13569;DHT22;6856;51.460;7.158;2023-09-19T00:19:32;19.90;60.40
13569;DHT22;6856;51.460;7.158;2023-09-19T00:22:06;19.90;60.40
13569;DHT22;6856;51.460;7.158;2023-09-19T00:24:40;19.80;60.50
13569;DHT22;6856;51.460;7.158;2023-09-19T00:31:51;19.80;60.90
13569;DHT22;6856;51.460;7.158;2023-09-19T00:34:26;19.80;60.40
13569;DHT22;6856;51.460;7.158;2023-09-19T00:36:59;19.70;60.40
13569;DHT22;6856;51.460;7.158;2023-09-19T00:39:33;19.70;60.50
13569;DHT22;6856;51.460;7.158;2023-09-19T00:42:07;19.70;60.40
13569;DHT22;6856;51.460;7.158;2023-09-19T00:44:40;19.60;60.50
13569;DHT22;6856;51.460;7.158;2023-09-19T00:47:16;19.60;61.10
13569;DHT22;6856;51.460;7.158;2023-09-19T00:49:50;19.60;60.50
13569;DHT22;6856;51.460;7.158;2023-09-19T00:52:24;19.60;60.60
13569;DHT22;6856;51.460;7.158;2023-09-19T00:55:00;19.50;60.50
13569;DHT22;6856;51.460;7.158;2023-09-19T00:57:35;19.50;60.40
13569;DHT22;6856;51.460;7.158;2023-09-19T01:00:11;19.50;60.50
13569;DHT22;6856;51.460;7.158;2023-09-19T01:02:49;19.40;60.50
13569;DHT22;6856;51.460;7.158;2023-09-19T01:05:23;19.40;60.40
13569;DHT22;6856;51.460;7.158;2023-09-19T01:07:57;19.40;60.40
13569;DHT22;6856;51.460;7.158;2023-09-19T01:10:31;19.40;61.20
13569;DHT22;6856;51.460;7.158;2023-09-19T01:17:48;19.30;60.70
13569;DHT22;6856;51.460;7.158;2023-09-19T01:20:37;19.30;60.30
13569;DHT22;6856;51.460;7.158;2023-09-19T01:23:25;19.20;60.40
13569;DHT22;6856;51.460;7.158;2023-09-19T01:26:21;19.20;60.40
13569;DHT22;6856;51.460;7.158;2023-09-19T01:29:23;19.10;60.40
13569;DHT22;6856;51.460;7.158;2023-09-19T01:32:08;19.10;60.60
13569;DHT22;6856;51.460;7.158;2023-09-19T01:34:46;19.00;60.30
13569;DHT22;6856;51.460;7.158;2023-09-19T01:37:22;19.00;60.60
13569;DHT22;6856;51.460;7.158;2023-09-19T01:40:00;19.00;60.70
13569;DHT22;6856;51.460;7.158;2023-09-19T01:42:42;19.00;60.90
13569;DHT22;6856;51.460;7.158;2023-09-19T01:45:23;18.90;60.80
13569;DHT22;6856;51.460;7.158;2023-09-19T01:48:12;18.90;60.90
13569;DHT22;6856;51.460;7.158;2023-09-19T01:50:59;18.90;61.00
13569;DHT22;6856;51.460;7.158;2023-09-19T01:53:51;18.80;60.90
13569;DHT22;6856;51.460;7.158;2023-09-19T01:56:34;18.80;61.10
13569;DHT22;6856;51.460;7.158;2023-09-19T01:59:13;18.80;61.00
13569;DHT22;6856;51.460;7.158;2023-09-19T02:01:52;18.80;61.00
13569;DHT22;6856;51.460;7.158;2023-09-19T02:04:30;18.70;61.00
13569;DHT22;6856;51.460;7.158;2023-09-19T02:07:06;18.70;61.10
13569;DHT22;6856;51.460;7.158;2023-09-19T02:09:41;18.30;60.70
13569;DHT22;6856;51.460;7.158;2023-09-19T02:12:14;18.70;61.00
13569;DHT22;6856;51.460;7.158;2023-09-19T02:14:48;18.70;61.10
13569;DHT22;6856;51.460;7.158;2023-09-19T02:17:22;18.70;61.20
13569;DHT22;6856;51.460;7.158;2023-09-19T02:19:59;18.70;61.10
13569;DHT22;6856;51.460;7.158;2023-09-19T02:22:34;18.60;61.10
13569;DHT22;6856;51.460;7.158;2023-09-19T02:25:08;18.60;61.10
13569;DHT22;6856;51.460;7.158;2023-09-19T02:27:43;18.60;61.00
13569;DHT22;6856;51.460;7.158;2023-09-19T02:30:17;18.60;60.90
13569;DHT22;6856;51.460;7.158;2023-09-19T02:32:52;18.60;61.00
13569;DHT22;6856;51.460;7.158;2023-09-19T02:35:27;18.50;61.10
13569;DHT22;6856;51.460;7.158;2023-09-19T02:38:05;18.50;61.10
13569;DHT22;6856;51.460;7.158;2023-09-19T02:40:43;18.50;61.10
13569;DHT22;6856;51.460;7.158;2023-09-19T02:43:18;18.50;61.10
13569;DHT22;6856;51.460;7.158;2023-09-19T02:45:52;18.40;61.30
13569;DHT22;6856;51.460;7.158;2023-09-19T02:48:26;18.40;61.30
13569;DHT22;6856;51.460;7.158;2023-09-19T02:55:38;18.40;61.50
13569;DHT22;6856;51.460;7.158;2023-09-19T02:58:12;18.40;61.20
13569;DHT22;6856;51.460;7.158;2023-09-19T03:00:47;18.40;61.20
13569;DHT22;6856;51.460;7.158;2023-09-19T03:03:23;18.30;61.20
13569;DHT22;6856;51.460;7.158;2023-09-19T03:05:57;18.30;61.20
13569;DHT22;6856;51.460;7.158;2023-09-19T03:08:31;18.30;61.20
13569;DHT22;6856;51.460;7.158;2023-09-19T03:11:10;18.30;61.10
13569;DHT22;6856;51.460;7.158;2023-09-19T03:13:50;18.30;61.00
13569;DHT22;6856;51.460;7.158;2023-09-19T03:16:25;18.30;60.90
13569;DHT22;6856;51.460;7.158;2023-09-19T03:18:59;18.30;60.80
13569;DHT22;6856;51.460;7.158;2023-09-19T03:21:33;18.30;60.80
13569;DHT22;6856;51.460;7.158;2023-09-19T03:24:06;18.30;60.70
13569;DHT22;6856;51.460;7.158;2023-09-19T03:26:42;18.20;60.50
13569;DHT22;6856;51.460;7.158;2023-09-19T03:29:17;18.20;60.40
13569;DHT22;6856;51.460;7.158;2023-09-19T03:31:51;18.20;60.40
13569;DHT22;6856;51.460;7.158;2023-09-19T03:34:26;18.20;60.30
13569;DHT22;6856;51.460;7.158;2023-09-19T03:37:03;18.20;60.20
13569;DHT22;6856;51.460;7.158;2023-09-19T03:39:38;18.10;60.00
13569;DHT22;6856;51.460;7.158;2023-09-19T03:42:14;18.10;60.00
13569;DHT22;6856;51.460;7.158;2023-09-19T03:44:47;18.10;60.00
13569;DHT22;6856;51.460;7.158;2023-09-19T03:51:56;18.10;60.10
13569;DHT22;6856;51.460;7.158;2023-09-19T03:54:30;18.10;60.60
13569;DHT22;6856;51.460;7.158;2023-09-19T03:57:05;18.10;60.00
13569;DHT22;6856;51.460;7.158;2023-09-19T03:59:40;18.10;59.80
13569;DHT22;6856;51.460;7.158;2023-09-19T04:06:49;18.10;60.00
13569;DHT22;6856;51.460;7.158;2023-09-19T04:09:23;18.10;59.90
13569;DHT22;6856;51.460;7.158;2023-09-19T04:11:58;18.00;60.50
13569;DHT22;6856;51.460;7.158;2023-09-19T04:14:31;18.00;59.70
13569;DHT22;6856;51.460;7.158;2023-09-19T04:17:06;18.00;59.70
13569;DHT22;6856;51.460;7.158;2023-09-19T04:19:42;18.00;59.80
13569;DHT22;6856;51.460;7.158;2023-09-19T04:22:17;18.00;59.80
13569;DHT22;6856;51.460;7.158;2023-09-19T04:24:51;18.00;59.80
13569;DHT22;6856;51.460;7.158;2023-09-19T04:27:25;18.00;59.90
13569;DHT22;6856;51.460;7.158;2023-09-19T04:29:58;18.00;59.90
13569;DHT22;6856;51.460;7.158;2023-09-19T04:32:43;17.90;59.90
13569;DHT22;6856;51.460;7.158;2023-09-19T04:35:16;18.00;59.90
13569;DHT22;6856;51.460;7.158;2023-09-19T04:42:28;17.90;60.20
13569;DHT22;6856;51.460;7.158;2023-09-19T04:45:02;17.90;59.80
13569;DHT22;6856;51.460;7.158;2023-09-19T04:47:38;17.90;59.90
13569;DHT22;6856;51.460;7.158;2023-09-19T04:50:13;17.90;59.90
13569;DHT22;6856;51.460;7.158;2023-09-19T04:52:49;17.90;59.90
13569;DHT22;6856;51.460;7.158;2023-09-19T04:55:25;17.80;60.00
13569;DHT22;6856;51.460;7.158;2023-09-19T05:02:34;17.80;60.30
13569;DHT22;6856;51.460;7.158;2023-09-19T05:05:08;17.80;60.10
13569;DHT22;6856;51.460;7.158;2023-09-19T05:07:45;17.70;60.30
13569;DHT22;6856;51.460;7.158;2023-09-19T05:10:20;17.80;60.40
13569;DHT22;6856;51.460;7.158;2023-09-19T05:12:56;17.70;60.40
13569;DHT22;6856;51.460;7.158;2023-09-19T05:15:30;17.70;60.60
13569;DHT22;6856;51.460;7.158;2023-09-19T05:18:07;17.70;60.50
13569;DHT22;6856;51.460;7.158;2023-09-19T05:20:42;17.70;60.60
13569;DHT22;6856;51.460;7.158;2023-09-19T05:23:17;17.70;60.70
13569;DHT22;6856;51.460;7.158;2023-09-19T05:25:52;17.70;60.60
13569;DHT22;6856;51.460;7.158;2023-09-19T05:28:29;17.70;60.70
13569;DHT22;6856;51.460;7.158;2023-09-19T05:31:04;17.70;60.80
13569;DHT22;6856;51.460;7.158;2023-09-19T05:33:38;17.70;60.90
13569;DHT22;6856;51.460;7.158;2023-09-19T05:36:14;17.70;60.70
13569;DHT22;6856;51.460;7.158;2023-09-19T05:38:50;17.70;61.00
13569;DHT22;6856;51.460;7.158;2023-09-19T05:41:25;17.70;60.90
13569;DHT22;6856;51.460;7.158;2023-09-19T05:48:34;17.70;61.10
13569;DHT22;6856;51.460;7.158;2023-09-19T05:51:08;17.70;60.70
13569;DHT22;6856;51.460;7.158;2023-09-19T05:53:42;17.70;60.80
13569;DHT22;6856;51.460;7.158;2023-09-19T05:56:18;17.70;61.00
13569;DHT22;6856;51.460;7.158;2023-09-19T05:58:52;17.70;60.80
13569;DHT22;6856;51.460;7.158;2023-09-19T06:01:27;17.70;60.90
13569;DHT22;6856;51.460;7.158;2023-09-19T06:04:01;17.70;60.90
13569;DHT22;6856;51.460;7.158;2023-09-19T06:06:35;17.70;60.90
13569;DHT22;6856;51.460;7.158;2023-09-19T06:09:11;17.70;60.90
13569;DHT22;6856;51.460;7.158;2023-09-19T06:16:22;17.70;61.40
13569;DHT22;6856;51.460;7.158;2023-09-19T06:18:56;17.70;60.90
13569;DHT22;6856;51.460;7.158;2023-09-19T06:21:30;17.70;60.80
13569;DHT22;6856;51.460;7.158;2023-09-19T06:24:05;17.70;61.00
13569;DHT22;6856;51.460;7.158;2023-09-19T06:26:39;17.70;61.00
13569;DHT22;6856;51.460;7.158;2023-09-19T06:29:13;17.70;61.10
13569;DHT22;6856;51.460;7.158;2023-09-19T06:31:52;17.80;61.10
13569;DHT22;6856;51.460;7.158;2023-09-19T06:34:25;17.80;61.10
13569;DHT22;6856;51.460;7.158;2023-09-19T06:36:59;17.80;61.00
13569;DHT22;6856;51.460;7.158;2023-09-19T06:39:35;17.90;61.00
13569;DHT22;6856;51.460;7.158;2023-09-19T06:42:09;17.80;60.80
13569;DHT22;6856;51.460;7.158;2023-09-19T06:44:42;17.90;60.90
13569;DHT22;6856;51.460;7.158;2023-09-19T06:47:18;17.80;60.90
13569;DHT22;6856;51.460;7.158;2023-09-19T06:49:52;17.90;60.90
13569;DHT22;6856;51.460;7.158;2023-09-19T06:52:26;17.90;61.00
13569;DHT22;6856;51.460;7.158;2023-09-19T06:59:36;17.90;61.20
13569;DHT22;6856;51.460;7.158;2023-09-19T07:02:10;18.00;60.90
13569;DHT22;6856;51.460;7.158;2023-09-19T07:09:22;18.00;61.10
13569;DHT22;6856;51.460;7.158;2023-09-19T07:11:59;18.00;60.80
13569;DHT22;6856;51.460;7.158;2023-09-19T07:14:37;18.10;61.10
13569;DHT22;6856;51.460;7.158;2023-09-19T07:17:13;18.10;61.10
13569;DHT22;6856;51.460;7.158;2023-09-19T07:19:51;18.10;61.00
13569;DHT22;6856;51.460;7.158;2023-09-19T07:22:27;18.10;60.70
13569;DHT22;6856;51.460;7.158;2023-09-19T07:25:04;18.20;61.00
13569;DHT22;6856;51.460;7.158;2023-09-19T07:27:41;18.20;61.10
13569;DHT22;6856;51.460;7.158;2023-09-19T07:30:15;18.30;61.30
13569;DHT22;6856;51.460;7.158;2023-09-19T07:32:51;18.30;61.00
13569;DHT22;6856;51.460;7.158;2023-09-19T07:35:26;18.30;61.30
13569;DHT22;6856;51.460;7.158;2023-09-19T07:38:02;18.30;61.20
13569;DHT22;6856;51.460;7.158;2023-09-19T07:40:39;18.30;61.30
13569;DHT22;6856;51.460;7.158;2023-09-19T07:43:13;18.40;61.20
13569;DHT22;6856;51.460;7.158;2023-09-19T07:45:49;18.40;61.10
13569;DHT22;6856;51.460;7.158;2023-09-19T07:48:24;18.40;60.90
13569;DHT22;6856;51.460;7.158;2023-09-19T07:51:02;18.50;61.00
13569;DHT22;6856;51.460;7.158;2023-09-19T07:53:38;18.40;61.10
13569;DHT22;6856;51.460;7.158;2023-09-19T07:56:15;18.50;60.80
13569;DHT22;6856;51.460;7.158;2023-09-19T07:58:52;18.70;61.00
13569;DHT22;6856;51.460;7.158;2023-09-19T08:01:26;18.60;60.80
13569;DHT22;6856;51.460;7.158;2023-09-19T08:04:01;18.60;60.50
13569;DHT22;6856;51.460;7.158;2023-09-19T08:06:35;18.60;60.80
13569;DHT22;6856;51.460;7.158;2023-09-19T08:09:12;18.60;60.90
13569;DHT22;6856;51.460;7.158;2023-09-19T08:11:58;18.70;60.40
13569;DHT22;6856;51.460;7.158;2023-09-19T08:14:37;18.70;60.90
13569;DHT22;6856;51.460;7.158;2023-09-19T08:17:13;18.80;60.70
13569;DHT22;6856;51.460;7.158;2023-09-19T08:19:48;18.80;60.50
13569;DHT22;6856;51.460;7.158;2023-09-19T08:22:25;18.80;60.80
13569;DHT22;6856;51.460;7.158;2023-09-19T08:24:59;18.90;60.50
13569;DHT22;6856;51.460;7.158;2023-09-19T08:27:40;18.90;60.50
13569;DHT22;6856;51.460;7.158;2023-09-19T08:30:17;18.90;60.20
13569;DHT22;6856;51.460;7.158;2023-09-19T08:32:57;19.00;60.60
13569;DHT22;6856;51.460;7.158;2023-09-19T08:35:31;19.00;60.40
13569;DHT22;6856;51.460;7.158;2023-09-19T08:38:05;19.20;60.70
13569;DHT22;6856;51.460;7.158;2023-09-19T08:40:43;19.00;60.30
13569;DHT22;6856;51.460;7.158;2023-09-19T08:43:21;19.00;60.70
13569;DHT22;6856;51.460;7.158;2023-09-19T08:46:03;19.10;61.40
13569;DHT22;6856;51.460;7.158;2023-09-19T08:48:49;19.10;60.70
13569;DHT22;6856;51.460;7.158;2023-09-19T08:51:41;19.20;60.90
13569;DHT22;6856;51.460;7.158;2023-09-19T08:54:21;19.30;60.70
13569;DHT22;6856;51.460;7.158;2023-09-19T08:57:02;19.40;60.80
13569;DHT22;6856;51.460;7.158;2023-09-19T08:59:43;19.40;60.50
13569;DHT22;6856;51.460;7.158;2023-09-19T09:02:20;19.50;60.80
13569;DHT22;6856;51.460;7.158;2023-09-19T09:04:58;19.60;60.40
13569;DHT22;6856;51.460;7.158;2023-09-19T09:07:35;19.70;60.30
13569;DHT22;6856;51.460;7.158;2023-09-19T09:10:11;19.70;60.00
13569;DHT22;6856;51.460;7.158;2023-09-19T09:12:47;19.80;59.50
13569;DHT22;6856;51.460;7.158;2023-09-19T09:15:25;19.80;59.50
13569;DHT22;6856;51.460;7.158;2023-09-19T09:18:03;19.90;59.40
13569;DHT22;6856;51.460;7.158;2023-09-19T09:20:39;20.00;59.40
13569;DHT22;6856;51.460;7.158;2023-09-19T09:23:14;20.00;58.90
13569;DHT22;6856;51.460;7.158;2023-09-19T09:25:49;20.10;59.10
13569;DHT22;6856;51.460;7.158;2023-09-19T09:28:35;20.10;59.30
13569;DHT22;6856;51.460;7.158;2023-09-19T09:31:22;20.20;59.20
13569;DHT22;6856;51.460;7.158;2023-09-19T09:33:57;20.30;58.60
13569;DHT22;6856;51.460;7.158;2023-09-19T09:36:35;20.40;58.80
13569;DHT22;6856;51.460;7.158;2023-09-19T09:39:11;20.50;58.40
13569;DHT22;6856;51.460;7.158;2023-09-19T09:41:57;20.50;57.90
13569;DHT22;6856;51.460;7.158;2023-09-19T09:44:32;20.60;58.00
13569;DHT22;6856;51.460;7.158;2023-09-19T09:47:09;20.60;57.60
13569;DHT22;6856;51.460;7.158;2023-09-19T09:50:00;20.60;57.90
13569;DHT22;6856;51.460;7.158;2023-09-19T09:52:50;20.70;57.70
13569;DHT22;6856;51.460;7.158;2023-09-19T09:55:24;20.70;57.60
13569;DHT22;6856;51.460;7.158;2023-09-19T09:58:16;21.10;57.50
13569;DHT22;6856;51.460;7.158;2023-09-19T10:00:55;20.90;57.20
13569;DHT22;6856;51.460;7.158;2023-09-19T10:03:39;21.00;57.60
13569;DHT22;6856;51.460;7.158;2023-09-19T10:06:18;21.00;56.20
13569;DHT22;6856;51.460;7.158;2023-09-19T10:09:03;21.10;56.90
13569;DHT22;6856;51.460;7.158;2023-09-19T10:11:45;21.20;56.80
13569;DHT22;6856;51.460;7.158;2023-09-19T10:14:30;21.30;56.80
13569;DHT22;6856;51.460;7.158;2023-09-19T10:17:09;21.40;56.60
13569;DHT22;6856;51.460;7.158;2023-09-19T10:19:52;21.40;56.20
13569;DHT22;6856;51.460;7.158;2023-09-19T10:22:32;21.50;56.10
13569;DHT22;6856;51.460;7.158;2023-09-19T10:25:09;21.60;56.00
13569;DHT22;6856;51.460;7.158;2023-09-19T10:27:44;21.70;56.00
13569;DHT22;6856;51.460;7.158;2023-09-19T10:30:23;21.70;56.40
13569;DHT22;6856;51.460;7.158;2023-09-19T10:33:02;21.80;56.20
13569;DHT22;6856;51.460;7.158;2023-09-19T10:35:42;21.90;56.00
13569;DHT22;6856;51.460;7.158;2023-09-19T10:38:19;22.00;56.20
13569;DHT22;6856;51.460;7.158;2023-09-19T10:40:57;22.00;55.30
13569;DHT22;6856;51.460;7.158;2023-09-19T10:43:35;22.10;54.90
13569;DHT22;6856;51.460;7.158;2023-09-19T10:46:12;22.10;54.60
13569;DHT22;6856;51.460;7.158;2023-09-19T10:48:46;22.20;54.50
13569;DHT22;6856;51.460;7.158;2023-09-19T10:51:27;22.20;54.10
13569;DHT22;6856;51.460;7.158;2023-09-19T10:54:08;22.20;54.60
13569;DHT22;6856;51.460;7.158;2023-09-19T10:56:49;22.30;54.70
13569;DHT22;6856;51.460;7.158;2023-09-19T10:59:24;22.30;54.00
13569;DHT22;6856;51.460;7.158;2023-09-19T11:02:16;22.30;53.80
13569;DHT22;6856;51.460;7.158;2023-09-19T11:04:51;22.40;53.60
13569;DHT22;6856;51.460;7.158;2023-09-19T11:07:28;22.40;53.10
13569;DHT22;6856;51.460;7.158;2023-09-19T11:10:04;22.20;53.10
13569;DHT22;6856;51.460;7.158;2023-09-19T11:12:48;22.40;53.30
13569;DHT22;6856;51.460;7.158;2023-09-19T11:18:54;22.50;52.50
13569;DHT22;6856;51.460;7.158;2023-09-19T11:21:52;22.60;52.80
13569;DHT22;6856;51.460;7.158;2023-09-19T11:24:46;22.60;52.50
13569;DHT22;6856;51.460;7.158;2023-09-19T11:27:24;22.60;52.70
13569;DHT22;6856;51.460;7.158;2023-09-19T11:30:26;22.60;52.70
13569;DHT22;6856;51.460;7.158;2023-09-19T11:33:17;22.70;52.50
13569;DHT22;6856;51.460;7.158;2023-09-19T11:35:59;22.70;52.40
13569;DHT22;6856;51.460;7.158;2023-09-19T11:38:59;22.70;52.50
13569;DHT22;6856;51.460;7.158;2023-09-19T11:41:56;22.70;52.50
13569;DHT22;6856;51.460;7.158;2023-09-19T11:44:34;22.50;52.80
13569;DHT22;6856;51.460;7.158;2023-09-19T11:47:12;22.70;52.50
13569;DHT22;6856;51.460;7.158;2023-09-19T11:49:47;22.70;52.60
13569;DHT22;6856;51.460;7.158;2023-09-19T11:52:22;22.70;51.80
13569;DHT22;6856;51.460;7.158;2023-09-19T11:55:00;22.70;52.10
13569;DHT22;6856;51.460;7.158;2023-09-19T11:57:36;22.70;52.10
13569;DHT22;6856;51.460;7.158;2023-09-19T12:00:18;22.80;52.10
13569;DHT22;6856;51.460;7.158;2023-09-19T12:02:56;22.80;52.20
13569;DHT22;6856;51.460;7.158;2023-09-19T12:05:39;22.90;52.20
13569;DHT22;6856;51.460;7.158;2023-09-19T12:08:15;22.90;52.40
13569;DHT22;6856;51.460;7.158;2023-09-19T12:10:53;23.00;52.40
13569;DHT22;6856;51.460;7.158;2023-09-19T12:13:30;23.00;52.40
13569;DHT22;6856;51.460;7.158;2023-09-19T12:16:11;23.10;51.90
13569;DHT22;6856;51.460;7.158;2023-09-19T12:18:53;23.20;51.30
13569;DHT22;6856;51.460;7.158;2023-09-19T12:21:30;23.20;51.10
13569;DHT22;6856;51.460;7.158;2023-09-19T12:24:11;23.30;50.60
13569;DHT22;6856;51.460;7.158;2023-09-19T12:26:49;23.30;50.30
13569;DHT22;6856;51.460;7.158;2023-09-19T12:29:26;23.30;50.80
13569;DHT22;6856;51.460;7.158;2023-09-19T12:32:03;23.30;50.60
13569;DHT22;6856;51.460;7.158;2023-09-19T12:34:38;23.40;50.00
13569;DHT22;6856;51.460;7.158;2023-09-19T12:37:16;23.40;50.20
13569;DHT22;6856;51.460;7.158;2023-09-19T12:39:53;23.40;50.10
13569;DHT22;6856;51.460;7.158;2023-09-19T12:42:47;23.50;50.00
13569;DHT22;6856;51.460;7.158;2023-09-19T12:45:27;23.50;49.80
13569;DHT22;6856;51.460;7.158;2023-09-19T12:48:20;23.50;49.10
13569;DHT22;6856;51.460;7.158;2023-09-19T12:51:03;23.50;49.20
13569;DHT22;6856;51.460;7.158;2023-09-19T12:53:41;23.50;49.70
13569;DHT22;6856;51.460;7.158;2023-09-19T12:56:18;23.50;49.60
13569;DHT22;6856;51.460;7.158;2023-09-19T12:58:53;23.40;49.20
13569;DHT22;6856;51.460;7.158;2023-09-19T13:01:32;23.60;49.10
13569;DHT22;6856;51.460;7.158;2023-09-19T13:04:13;23.60;48.60
13569;DHT22;6856;51.460;7.158;2023-09-19T13:06:50;23.70;48.80
13569;DHT22;6856;51.460;7.158;2023-09-19T13:09:27;23.60;48.90
13569;DHT22;6856;51.460;7.158;2023-09-19T13:15:19;23.60;48.70
13569;DHT22;6856;51.460;7.158;2023-09-19T13:17:57;23.70;48.90
13569;DHT22;6856;51.460;7.158;2023-09-19T13:20:37;23.70;48.80
13569;DHT22;6856;51.460;7.158;2023-09-19T13:23:26;23.70;48.90
13569;DHT22;6856;51.460;7.158;2023-09-19T13:26:01;23.70;48.30
13569;DHT22;6856;51.460;7.158;2023-09-19T13:28:38;23.70;48.70
13569;DHT22;6856;51.460;7.158;2023-09-19T13:31:16;23.60;48.50
13569;DHT22;6856;51.460;7.158;2023-09-19T13:33:52;23.60;48.60
13569;DHT22;6856;51.460;7.158;2023-09-19T13:36:26;23.60;48.20
13569;DHT22;6856;51.460;7.158;2023-09-19T13:39:01;23.50;48.40
13569;DHT22;6856;51.460;7.158;2023-09-19T13:41:35;23.50;48.40
13569;DHT22;6856;51.460;7.158;2023-09-19T13:44:09;23.50;48.40
13569;DHT22;6856;51.460;7.158;2023-09-19T13:46:44;23.50;48.20
13569;DHT22;6856;51.460;7.158;2023-09-19T13:49:20;23.50;48.60
13569;DHT22;6856;51.460;7.158;2023-09-19T13:51:55;23.50;48.40
13569;DHT22;6856;51.460;7.158;2023-09-19T13:54:30;23.50;48.60
13569;DHT22;6856;51.460;7.158;2023-09-19T13:57:05;23.50;48.40
13569;DHT22;6856;51.460;7.158;2023-09-19T13:59:42;23.40;48.60
13569;DHT22;6856;51.460;7.158;2023-09-19T14:02:16;23.40;48.00
13569;DHT22;6856;51.460;7.158;2023-09-19T14:04:53;23.40;48.40
13569;DHT22;6856;51.460;7.158;2023-09-19T14:07:27;23.40;48.80
13569;DHT22;6856;51.460;7.158;2023-09-19T14:10:01;23.40;48.60
13569;DHT22;6856;51.460;7.158;2023-09-19T14:12:39;23.30;48.60
13569;DHT22;6856;51.460;7.158;2023-09-19T14:15:15;23.30;48.60
13569;DHT22;6856;51.460;7.158;2023-09-19T14:17:50;23.30;48.60
13569;DHT22;6856;51.460;7.158;2023-09-19T14:20:26;23.30;48.60
13569;DHT22;6856;51.460;7.158;2023-09-19T14:23:00;23.20;48.10
13569;DHT22;6856;51.460;7.158;2023-09-19T14:25:34;23.20;48.80
13569;DHT22;6856;51.460;7.158;2023-09-19T14:28:10;23.20;48.80
13569;DHT22;6856;51.460;7.158;2023-09-19T14:30:44;23.10;48.90
13569;DHT22;6856;51.460;7.158;2023-09-19T14:33:22;23.10;48.90
13569;DHT22;6856;51.460;7.158;2023-09-19T14:36:02;23.10;49.00
13569;DHT22;6856;51.460;7.158;2023-09-19T14:38:40;23.00;49.00
13569;DHT22;6856;51.460;7.158;2023-09-19T14:41:15;23.00;49.00
13569;DHT22;6856;51.460;7.158;2023-09-19T14:43:51;23.00;49.10
13569;DHT22;6856;51.460;7.158;2023-09-19T14:46:29;23.00;48.70
13569;DHT22;6856;51.460;7.158;2023-09-19T14:49:09;23.00;48.90
13569;DHT22;6856;51.460;7.158;2023-09-19T14:51:46;23.00;49.20
13569;DHT22;6856;51.460;7.158;2023-09-19T14:54:20;23.00;49.50
13569;DHT22;6856;51.460;7.158;2023-09-19T14:56:56;22.90;49.20
13569;DHT22;6856;51.460;7.158;2023-09-19T14:59:37;22.90;49.30
13569;DHT22;6856;51.460;7.158;2023-09-19T15:02:12;22.90;49.20
13569;DHT22;6856;51.460;7.158;2023-09-19T15:04:49;22.90;50.00
13569;DHT22;6856;51.460;7.158;2023-09-19T15:07:25;22.80;49.60
13569;DHT22;6856;51.460;7.158;2023-09-19T15:10:02;22.80;49.50
13569;DHT22;6856;51.460;7.158;2023-09-19T15:12:39;22.80;49.70
13569;DHT22;6856;51.460;7.158;2023-09-19T15:15:13;22.80;49.70
13569;DHT22;6856;51.460;7.158;2023-09-19T15:17:49;22.70;49.70
13569;DHT22;6856;51.460;7.158;2023-09-19T15:20:23;22.70;49.70
13569;DHT22;6856;51.460;7.158;2023-09-19T15:23:01;22.70;49.60
13569;DHT22;6856;51.460;7.158;2023-09-19T15:25:35;22.60;49.60
13569;DHT22;6856;51.460;7.158;2023-09-19T15:28:09;22.60;49.80
13569;DHT22;6856;51.460;7.158;2023-09-19T15:30:44;22.60;49.80
13569;DHT22;6856;51.460;7.158;2023-09-19T15:33:19;22.60;49.80
13569;DHT22;6856;51.460;7.158;2023-09-19T15:36:00;22.60;49.50
13569;DHT22;6856;51.460;7.158;2023-09-19T15:38:57;22.50;50.00
13569;DHT22;6856;51.460;7.158;2023-09-19T15:41:34;22.50;49.80
13569;DHT22;6856;51.460;7.158;2023-09-19T15:44:14;22.50;50.00
13569;DHT22;6856;51.460;7.158;2023-09-19T15:46:50;22.50;50.00
13569;DHT22;6856;51.460;7.158;2023-09-19T15:49:25;22.40;50.00
13569;DHT22;6856;51.460;7.158;2023-09-19T15:51:59;22.40;50.00
13569;DHT22;6856;51.460;7.158;2023-09-19T15:54:35;22.50;50.20
13569;DHT22;6856;51.460;7.158;2023-09-19T15:57:14;22.40;50.00
13569;DHT22;6856;51.460;7.158;2023-09-19T15:59:49;22.40;49.90
13569;DHT22;6856;51.460;7.158;2023-09-19T16:02:23;22.50;49.90
13569;DHT22;6856;51.460;7.158;2023-09-19T16:04:58;22.50;50.20
13569;DHT22;6856;51.460;7.158;2023-09-19T16:07:33;22.50;50.10
13569;DHT22;6856;51.460;7.158;2023-09-19T16:10:10;22.50;50.20
13569;DHT22;6856;51.460;7.158;2023-09-19T16:12:46;22.30;49.70
13569;DHT22;6856;51.460;7.158;2023-09-19T16:15:23;22.50;50.00
13569;DHT22;6856;51.460;7.158;2023-09-19T16:17:59;22.40;50.10
13569;DHT22;6856;51.460;7.158;2023-09-19T16:20:37;22.40;49.90
13569;DHT22;6856;51.460;7.158;2023-09-19T16:23:12;22.40;49.70
13569;DHT22;6856;51.460;7.158;2023-09-19T16:25:48;22.40;49.90
13569;DHT22;6856;51.460;7.158;2023-09-19T16:28:37;22.40;50.00
13569;DHT22;6856;51.460;7.158;2023-09-19T16:31:12;22.40;49.90
13569;DHT22;6856;51.460;7.158;2023-09-19T16:33:48;22.30;50.10
13569;DHT22;6856;51.460;7.158;2023-09-19T16:36:24;22.30;49.80
13569;DHT22;6856;51.460;7.158;2023-09-19T16:39:27;22.30;50.20
13569;DHT22;6856;51.460;7.158;2023-09-19T16:42:03;22.20;50.30
13569;DHT22;6856;51.460;7.158;2023-09-19T16:44:51;22.20;50.30
13569;DHT22;6856;51.460;7.158;2023-09-19T16:47:25;22.20;50.20
13569;DHT22;6856;51.460;7.158;2023-09-19T16:50:02;22.20;50.40
13569;DHT22;6856;51.460;7.158;2023-09-19T16:56:18;22.10;50.70
13569;DHT22;6856;51.460;7.158;2023-09-19T16:58:54;22.10;50.50
13569;DHT22;6856;51.460;7.158;2023-09-19T17:01:30;21.90;50.50
13569;DHT22;6856;51.460;7.158;2023-09-19T17:04:05;22.10;50.50
13569;DHT22;6856;51.460;7.158;2023-09-19T17:06:40;22.00;50.60
13569;DHT22;6856;51.460;7.158;2023-09-19T17:09:18;22.00;50.50
13569;DHT22;6856;51.460;7.158;2023-09-19T17:11:52;22.00;50.70
13569;DHT22;6856;51.460;7.158;2023-09-19T17:14:33;22.00;50.60
13569;DHT22;6856;51.460;7.158;2023-09-19T17:17:12;22.00;50.70
13569;DHT22;6856;51.460;7.158;2023-09-19T17:19:48;22.00;50.60
13569;DHT22;6856;51.460;7.158;2023-09-19T17:22:22;22.00;50.70
13569;DHT22;6856;51.460;7.158;2023-09-19T17:24:56;22.00;50.60
13569;DHT22;6856;51.460;7.158;2023-09-19T17:27:30;22.00;50.90
13569;DHT22;6856;51.460;7.158;2023-09-19T17:30:08;21.90;50.60
13569;DHT22;6856;51.460;7.158;2023-09-19T17:32:46;21.90;50.90
13569;DHT22;6856;51.460;7.158;2023-09-19T17:35:20;21.90;51.00
13569;DHT22;6856;51.460;7.158;2023-09-19T17:37:54;21.90;50.90
13569;DHT22;6856;51.460;7.158;2023-09-19T17:40:41;21.90;50.50
13569;DHT22;6856;51.460;7.158;2023-09-19T17:43:18;21.90;51.00
13569;DHT22;6856;51.460;7.158;2023-09-19T17:45:56;21.90;50.70
13569;DHT22;6856;51.460;7.158;2023-09-19T17:48:40;21.90;50.20
13569;DHT22;6856;51.460;7.158;2023-09-19T17:51:16;21.90;51.30